VLG7KA LEZL-LEBB
Flight info
| Callsign | VLG7KA |
|---|---|
| Flight time | 1h 5m |
| Altitude | 34000 |
| Route | HIJ DCT PARKA DCT TLD DCT SIE DCT EDIGO DCT DGO |
| Aircraft | A321/M-SDE3FGHIRWY/LB1 |
Departure
| Time | 2026-05-08 17:07 |
|---|---|
| Airport | Seville Airport (LEZL) |
Arrival
| Time | 2026-05-08 18:13 |
|---|---|
| Airport | Bilbao Airport (LEBB) |
| Time | Latitude | Longitude | Altitude | Speed | Heading |
|---|---|---|---|---|---|
| 2026-05-08 16:33 | 37.42338 | -5.89787 | 94 ft | 0 kts | 314° |
| 2026-05-08 16:56 | 37.42331 | -5.89777 | 93 ft | 4 kts | 309° |
| 2026-05-08 16:57 | 37.42318 | -5.89750 | 93 ft | 4 kts | 280° |
| 2026-05-08 16:57 | 37.42320 | -5.89722 | 92 ft | 4 kts | 218° |
| 2026-05-08 16:57 | 37.42324 | -5.89718 | 92 ft | 0 kts | 210° |
| 2026-05-08 17:00 | 37.42304 | -5.89733 | 94 ft | 5 kts | 210° |
| 2026-05-08 17:00 | 37.42271 | -5.89726 | 95 ft | 6 kts | 148° |
| 2026-05-08 17:00 | 37.42238 | -5.89686 | 94 ft | 7 kts | 134° |
| 2026-05-08 17:00 | 37.42203 | -5.89641 | 94 ft | 7 kts | 134° |
| 2026-05-08 17:01 | 37.42170 | -5.89598 | 95 ft | 7 kts | 134° |
| 2026-05-08 17:01 | 37.42138 | -5.89557 | 96 ft | 6 kts | 134° |
| 2026-05-08 17:01 | 37.42109 | -5.89520 | 97 ft | 7 kts | 134° |
| 2026-05-08 17:01 | 37.42060 | -5.89456 | 98 ft | 11 kts | 134° |
| 2026-05-08 17:02 | 37.42006 | -5.89386 | 99 ft | 11 kts | 134° |
| 2026-05-08 17:02 | 37.41982 | -5.89298 | 100 ft | 11 kts | 90° |
| 2026-05-08 17:02 | 37.41983 | -5.89198 | 100 ft | 13 kts | 90° |
| 2026-05-08 17:02 | 37.41983 | -5.89072 | 101 ft | 15 kts | 90° |
| 2026-05-08 17:03 | 37.41984 | -5.88941 | 102 ft | 15 kts | 89° |
| 2026-05-08 17:03 | 37.41985 | -5.88808 | 103 ft | 15 kts | 88° |
| 2026-05-08 17:03 | 37.41985 | -5.88674 | 103 ft | 15 kts | 90° |
| 2026-05-08 17:03 | 37.41985 | -5.88537 | 104 ft | 16 kts | 90° |
| 2026-05-08 17:04 | 37.41986 | -5.88397 | 105 ft | 16 kts | 90° |
| 2026-05-08 17:04 | 37.41986 | -5.88256 | 106 ft | 16 kts | 90° |
| 2026-05-08 17:04 | 37.41987 | -5.88111 | 106 ft | 17 kts | 90° |
| 2026-05-08 17:04 | 37.41987 | -5.87959 | 107 ft | 18 kts | 90° |
| 2026-05-08 17:05 | 37.41988 | -5.87804 | 108 ft | 18 kts | 90° |
| 2026-05-08 17:05 | 37.41988 | -5.87649 | 109 ft | 18 kts | 90° |
| 2026-05-08 17:05 | 37.41973 | -5.87498 | 111 ft | 17 kts | 116° |
| 2026-05-08 17:05 | 37.41918 | -5.87435 | 114 ft | 8 kts | 162° |
| 2026-05-08 17:06 | 37.41866 | -5.87433 | 116 ft | 8 kts | 184° |
| 2026-05-08 17:06 | 37.41818 | -5.87440 | 114 ft | 6 kts | 200° |
| 2026-05-08 17:06 | 37.41800 | -5.87486 | 114 ft | 8 kts | 266° |
| 2026-05-08 17:06 | 37.41799 | -5.87777 | 112 ft | 69 kts | 269° |
| 2026-05-08 17:07 | 37.41796 | -5.88666 | 105 ft | 131 kts | 269° |
| 2026-05-08 17:07 | 37.41797 | -5.90013 | 216 ft | 167 kts | 268° |
| 2026-05-08 17:07 | 37.41822 | -5.91405 | 920 ft | 159 kts | 264° |
| 2026-05-08 17:07 | 37.42078 | -5.92800 | 1433 ft | 180 kts | 298° |
| 2026-05-08 17:08 | 37.42958 | -5.94054 | 1672 ft | 203 kts | 311° |
| 2026-05-08 17:08 | 37.44056 | -5.95310 | 1784 ft | 227 kts | 315° |
| 2026-05-08 17:08 | 37.45316 | -5.96696 | 1997 ft | 253 kts | 315° |
| 2026-05-08 17:08 | 37.46685 | -5.98209 | 2526 ft | 266 kts | 315° |
| 2026-05-08 17:09 | 37.48081 | -5.99769 | 3278 ft | 269 kts | 315° |
| 2026-05-08 17:09 | 37.49481 | -6.01363 | 4020 ft | 273 kts | 314° |
| 2026-05-08 17:09 | 37.50893 | -6.03001 | 4749 ft | 278 kts | 314° |
| 2026-05-08 17:09 | 37.52316 | -6.04677 | 5497 ft | 281 kts | 314° |
| 2026-05-08 17:10 | 37.53733 | -6.06357 | 6199 ft | 286 kts | 314° |
| 2026-05-08 17:10 | 37.55194 | -6.08094 | 6865 ft | 290 kts | 314° |
| 2026-05-08 17:10 | 37.56707 | -6.09786 | 7581 ft | 294 kts | 324° |
| 2026-05-08 17:10 | 37.58603 | -6.10776 | 8266 ft | 300 kts | 351° |
| 2026-05-08 17:11 | 37.60688 | -6.10660 | 8959 ft | 303 kts | 17° |
| 2026-05-08 17:11 | 37.62559 | -6.09440 | 9629 ft | 305 kts | 41° |
| 2026-05-08 17:11 | 37.64178 | -6.07669 | 10141 ft | 314 kts | 43° |
| 2026-05-08 17:11 | 37.65877 | -6.05772 | 10275 ft | 337 kts | 43° |
| 2026-05-08 17:12 | 37.67670 | -6.03763 | 10402 ft | 359 kts | 43° |
| 2026-05-08 17:12 | 37.69575 | -6.01635 | 10807 ft | 370 kts | 42° |
| 2026-05-08 17:12 | 37.71529 | -5.99463 | 11350 ft | 376 kts | 42° |
| 2026-05-08 17:12 | 37.73517 | -5.97256 | 11896 ft | 382 kts | 42° |
| 2026-05-08 17:13 | 37.75539 | -5.95009 | 12426 ft | 389 kts | 41° |
| 2026-05-08 17:13 | 37.77559 | -5.92761 | 12950 ft | 395 kts | 41° |
| 2026-05-08 17:13 | 37.79638 | -5.90444 | 13455 ft | 402 kts | 41° |
| 2026-05-08 17:13 | 37.81756 | -5.88079 | 13986 ft | 407 kts | 41° |
| 2026-05-08 17:14 | 37.83890 | -5.85692 | 14498 ft | 412 kts | 41° |
| 2026-05-08 17:14 | 37.86057 | -5.83265 | 15035 ft | 417 kts | 41° |
| 2026-05-08 17:14 | 37.88214 | -5.80847 | 15556 ft | 421 kts | 41° |
| 2026-05-08 17:14 | 37.90420 | -5.78371 | 16085 ft | 426 kts | 41° |
| 2026-05-08 17:15 | 37.92654 | -5.75860 | 16598 ft | 431 kts | 41° |
| 2026-05-08 17:15 | 37.94914 | -5.73321 | 17109 ft | 435 kts | 41° |
| 2026-05-08 17:15 | 37.97199 | -5.70754 | 17593 ft | 439 kts | 41° |
| 2026-05-08 17:15 | 37.99472 | -5.68205 | 18100 ft | 444 kts | 41° |
| 2026-05-08 17:16 | 38.01802 | -5.65598 | 18544 ft | 448 kts | 41° |
| 2026-05-08 17:16 | 38.04144 | -5.62974 | 19004 ft | 451 kts | 41° |
| 2026-05-08 17:16 | 38.06517 | -5.60309 | 19522 ft | 454 kts | 41° |
| 2026-05-08 17:16 | 38.08895 | -5.57634 | 19989 ft | 458 kts | 41° |
| 2026-05-08 17:17 | 38.11259 | -5.54971 | 20469 ft | 460 kts | 41° |
| 2026-05-08 17:17 | 38.13667 | -5.52253 | 20928 ft | 464 kts | 41° |
| 2026-05-08 17:17 | 38.16090 | -5.49516 | 21372 ft | 467 kts | 41° |
| 2026-05-08 17:17 | 38.18523 | -5.46763 | 21823 ft | 470 kts | 41° |
| 2026-05-08 17:18 | 38.20984 | -5.43978 | 22278 ft | 473 kts | 41° |
| 2026-05-08 17:18 | 38.23452 | -5.41184 | 22702 ft | 476 kts | 41° |
| 2026-05-08 17:18 | 38.25913 | -5.38391 | 23113 ft | 479 kts | 41° |
| 2026-05-08 17:18 | 38.28413 | -5.35552 | 23510 ft | 482 kts | 41° |
| 2026-05-08 17:19 | 38.30927 | -5.32694 | 23833 ft | 486 kts | 41° |
| 2026-05-08 17:19 | 38.33462 | -5.29810 | 24181 ft | 488 kts | 41° |
| 2026-05-08 17:19 | 38.36000 | -5.26916 | 24515 ft | 491 kts | 41° |
| 2026-05-08 17:19 | 38.38563 | -5.23989 | 24837 ft | 494 kts | 41° |
| 2026-05-08 17:20 | 38.41130 | -5.21060 | 25161 ft | 497 kts | 40° |
| 2026-05-08 17:20 | 38.42849 | -5.19096 | 25369 ft | 499 kts | 40° |
| 2026-05-08 17:20 | 38.46470 | -5.15462 | 25757 ft | 501 kts | 29° |
| 2026-05-08 17:20 | 38.49536 | -5.13367 | 26060 ft | 499 kts | 19° |
| 2026-05-08 17:21 | 38.51728 | -5.12303 | 26269 ft | 496 kts | 12° |
| 2026-05-08 17:21 | 38.55075 | -5.11265 | 26605 ft | 492 kts | 2° |
| 2026-05-08 17:21 | 38.58423 | -5.10876 | 26896 ft | 486 kts | 353° |
| 2026-05-08 17:21 | 38.61786 | -5.11085 | 27208 ft | 481 kts | 347° |
| 2026-05-08 17:22 | 38.65132 | -5.11435 | 27506 ft | 483 kts | 347° |
| 2026-05-08 17:22 | 38.68503 | -5.11786 | 27811 ft | 486 kts | 347° |
| 2026-05-08 17:22 | 38.71843 | -5.12132 | 28114 ft | 488 kts | 347° |
| 2026-05-08 17:22 | 38.75239 | -5.12478 | 28435 ft | 490 kts | 347° |
| 2026-05-08 17:23 | 38.78649 | -5.12820 | 28793 ft | 491 kts | 347° |
| 2026-05-08 17:23 | 38.82065 | -5.13163 | 29109 ft | 493 kts | 347° |
| 2026-05-08 17:23 | 38.85501 | -5.13514 | 29413 ft | 495 kts | 347° |
| 2026-05-08 17:23 | 38.88948 | -5.13870 | 29715 ft | 498 kts | 347° |
| 2026-05-08 17:24 | 38.92367 | -5.14220 | 30046 ft | 499 kts | 347° |
| 2026-05-08 17:24 | 38.95873 | -5.14202 | 30395 ft | 509 kts | 357° |
| 2026-05-08 17:24 | 38.99424 | -5.13477 | 30696 ft | 521 kts | 7° |
| 2026-05-08 17:24 | 39.02904 | -5.12027 | 31014 ft | 530 kts | 18° |
| 2026-05-08 17:25 | 39.06217 | -5.09859 | 31335 ft | 537 kts | 28° |
| 2026-05-08 17:25 | 39.09371 | -5.07252 | 31622 ft | 539 kts | 29° |
| 2026-05-08 17:25 | 39.12489 | -5.04662 | 31860 ft | 540 kts | 29° |
| 2026-05-08 17:25 | 39.15665 | -5.02035 | 32149 ft | 541 kts | 28° |
| 2026-05-08 17:26 | 39.18846 | -4.99410 | 32411 ft | 542 kts | 28° |
| 2026-05-08 17:26 | 39.22026 | -4.96778 | 32675 ft | 544 kts | 28° |
| 2026-05-08 17:26 | 39.25179 | -4.94161 | 32918 ft | 545 kts | 28° |
| 2026-05-08 17:26 | 39.28374 | -4.91507 | 33243 ft | 544 kts | 28° |
| 2026-05-08 17:27 | 39.31562 | -4.88857 | 33536 ft | 545 kts | 28° |
| 2026-05-08 17:27 | 39.34753 | -4.86201 | 33780 ft | 546 kts | 28° |
| 2026-05-08 17:27 | 39.41103 | -4.80893 | 33869 ft | 544 kts | 28° |
| 2026-05-08 17:28 | 39.47448 | -4.75577 | 33863 ft | 543 kts | 28° |
| 2026-05-08 17:28 | 39.53778 | -4.70270 | 33869 ft | 537 kts | 28° |
| 2026-05-08 17:29 | 39.60012 | -4.65032 | 33870 ft | 536 kts | 28° |
| 2026-05-08 17:29 | 39.66287 | -4.59757 | 33873 ft | 536 kts | 28° |
| 2026-05-08 17:30 | 39.72554 | -4.54473 | 33886 ft | 536 kts | 28° |
| 2026-05-08 17:30 | 39.78801 | -4.49189 | 33901 ft | 535 kts | 28° |
| 2026-05-08 17:31 | 39.84988 | -4.43932 | 33892 ft | 533 kts | 28° |
| 2026-05-08 17:31 | 39.91206 | -4.38639 | 33894 ft | 533 kts | 28° |
| 2026-05-08 17:32 | 39.97458 | -4.33491 | 33882 ft | 526 kts | 22° |
| 2026-05-08 17:32 | 40.03990 | -4.29472 | 33885 ft | 519 kts | 19° |
| 2026-05-08 17:33 | 40.10546 | -4.25494 | 33885 ft | 519 kts | 19° |
| 2026-05-08 17:33 | 40.17088 | -4.21490 | 33889 ft | 519 kts | 19° |
| 2026-05-08 17:34 | 40.23601 | -4.17487 | 33912 ft | 519 kts | 20° |
| 2026-05-08 17:34 | 40.30141 | -4.13470 | 33906 ft | 518 kts | 20° |
| 2026-05-08 17:35 | 40.36677 | -4.09454 | 33909 ft | 517 kts | 20° |
| 2026-05-08 17:35 | 40.43194 | -4.05437 | 33943 ft | 517 kts | 20° |
| 2026-05-08 17:36 | 40.49665 | -4.01436 | 33947 ft | 516 kts | 20° |
| 2026-05-08 17:36 | 40.56163 | -3.97406 | 33952 ft | 515 kts | 20° |
| 2026-05-08 17:37 | 40.62622 | -3.93399 | 33958 ft | 515 kts | 20° |
| 2026-05-08 17:37 | 40.69119 | -3.89368 | 33962 ft | 514 kts | 20° |
| 2026-05-08 17:38 | 40.75553 | -3.85363 | 33961 ft | 514 kts | 20° |
| 2026-05-08 17:38 | 40.82043 | -3.81306 | 33905 ft | 514 kts | 20° |
| 2026-05-08 17:39 | 40.88515 | -3.77250 | 33923 ft | 514 kts | 20° |
| 2026-05-08 17:39 | 40.94940 | -3.73216 | 33929 ft | 513 kts | 20° |
| 2026-05-08 17:40 | 41.01413 | -3.69167 | 33930 ft | 513 kts | 20° |
| 2026-05-08 17:40 | 41.07840 | -3.65126 | 33952 ft | 513 kts | 20° |
| 2026-05-08 17:41 | 41.14271 | -3.61053 | 33949 ft | 511 kts | 21° |
| 2026-05-08 17:41 | 41.20751 | -3.57202 | 33945 ft | 507 kts | 17° |
| 2026-05-08 17:42 | 41.27257 | -3.53761 | 33936 ft | 505 kts | 16° |
| 2026-05-08 17:42 | 41.33801 | -3.50335 | 33948 ft | 504 kts | 17° |
| 2026-05-08 17:43 | 41.40299 | -3.46812 | 33937 ft | 503 kts | 18° |
| 2026-05-08 17:43 | 41.46763 | -3.43225 | 33915 ft | 502 kts | 18° |
| 2026-05-08 17:44 | 41.53175 | -3.39672 | 33954 ft | 501 kts | 18° |
| 2026-05-08 17:44 | 41.59622 | -3.36123 | 33942 ft | 498 kts | 18° |
| 2026-05-08 17:45 | 41.65993 | -3.32608 | 33942 ft | 496 kts | 18° |
| 2026-05-08 17:45 | 41.72366 | -3.29073 | 33576 ft | 494 kts | 18° |
| 2026-05-08 17:46 | 41.75546 | -3.27308 | 33179 ft | 494 kts | 18° |
| 2026-05-08 17:46 | 41.78756 | -3.25529 | 32179 ft | 501 kts | 18° |
| 2026-05-08 17:46 | 41.81940 | -3.23762 | 31701 ft | 498 kts | 19° |
| 2026-05-08 17:46 | 41.85135 | -3.21978 | 31101 ft | 496 kts | 19° |
| 2026-05-08 17:47 | 41.88322 | -3.20197 | 30527 ft | 494 kts | 19° |
| 2026-05-08 17:47 | 41.91504 | -3.18419 | 29934 ft | 493 kts | 19° |
| 2026-05-08 17:47 | 41.94665 | -3.16655 | 29330 ft | 490 kts | 19° |
| 2026-05-08 17:47 | 41.96750 | -3.15490 | 28932 ft | 488 kts | 19° |
| 2026-05-08 17:48 | 42.00887 | -3.13173 | 28175 ft | 483 kts | 19° |
| 2026-05-08 17:48 | 42.03984 | -3.11436 | 27602 ft | 480 kts | 19° |
| 2026-05-08 17:48 | 42.07063 | -3.09706 | 27045 ft | 476 kts | 19° |
| 2026-05-08 17:48 | 42.10110 | -3.07991 | 26489 ft | 473 kts | 19° |
| 2026-05-08 17:49 | 42.13137 | -3.06286 | 25947 ft | 469 kts | 19° |
| 2026-05-08 17:49 | 42.16103 | -3.04615 | 25406 ft | 466 kts | 19° |
| 2026-05-08 17:49 | 42.19084 | -3.02937 | 24907 ft | 461 kts | 19° |
| 2026-05-08 17:49 | 42.22038 | -3.01273 | 24390 ft | 458 kts | 19° |
| 2026-05-08 17:50 | 42.24964 | -2.99624 | 23907 ft | 454 kts | 19° |
| 2026-05-08 17:50 | 42.27883 | -2.97978 | 23396 ft | 451 kts | 19° |
| 2026-05-08 17:50 | 42.30771 | -2.96347 | 22882 ft | 447 kts | 20° |
| 2026-05-08 17:50 | 42.33620 | -2.94733 | 22384 ft | 441 kts | 20° |
| 2026-05-08 17:51 | 42.36410 | -2.93148 | 21909 ft | 438 kts | 20° |
| 2026-05-08 17:51 | 42.39220 | -2.91551 | 21421 ft | 434 kts | 21° |
| 2026-05-08 17:51 | 42.42002 | -2.89968 | 20907 ft | 431 kts | 21° |
| 2026-05-08 17:51 | 42.44781 | -2.88614 | 20432 ft | 426 kts | 12° |
| 2026-05-08 17:52 | 42.47673 | -2.87947 | 19954 ft | 420 kts | 1° |
| 2026-05-08 17:52 | 42.50580 | -2.87794 | 19523 ft | 414 kts | 359° |
| 2026-05-08 17:52 | 42.56321 | -2.87503 | 18571 ft | 409 kts | 360° |
| 2026-05-08 17:53 | 42.59123 | -2.87348 | 18047 ft | 407 kts | 360° |
| 2026-05-08 17:53 | 42.61945 | -2.87190 | 17592 ft | 403 kts | 0° |
| 2026-05-08 17:53 | 42.64741 | -2.87034 | 17057 ft | 400 kts | 0° |
| 2026-05-08 17:53 | 42.67509 | -2.86881 | 16599 ft | 396 kts | 0° |
| 2026-05-08 17:54 | 42.70223 | -2.86765 | 16134 ft | 390 kts | 356° |
| 2026-05-08 17:54 | 42.72892 | -2.87196 | 15677 ft | 382 kts | 344° |
| 2026-05-08 17:54 | 42.75389 | -2.88336 | 15218 ft | 374 kts | 332° |
| 2026-05-08 17:54 | 42.77660 | -2.90005 | 14787 ft | 368 kts | 327° |
| 2026-05-08 17:55 | 42.79878 | -2.91727 | 14353 ft | 364 kts | 327° |
| 2026-05-08 17:55 | 42.82070 | -2.93426 | 13917 ft | 361 kts | 327° |
| 2026-05-08 17:55 | 42.84222 | -2.95093 | 13468 ft | 358 kts | 327° |
| 2026-05-08 17:55 | 42.86375 | -2.96760 | 13034 ft | 354 kts | 327° |
| 2026-05-08 17:56 | 42.88513 | -2.98414 | 12620 ft | 350 kts | 327° |
| 2026-05-08 17:56 | 42.90621 | -3.00045 | 12195 ft | 346 kts | 327° |
| 2026-05-08 17:56 | 42.92709 | -3.01664 | 11767 ft | 342 kts | 327° |
| 2026-05-08 17:56 | 42.94764 | -3.03258 | 11378 ft | 339 kts | 327° |
| 2026-05-08 17:57 | 42.96780 | -3.04824 | 10978 ft | 336 kts | 327° |
| 2026-05-08 17:57 | 42.98800 | -3.06401 | 10597 ft | 333 kts | 327° |
| 2026-05-08 17:57 | 43.00811 | -3.07970 | 10247 ft | 329 kts | 327° |
| 2026-05-08 17:57 | 43.02763 | -3.09487 | 10126 ft | 316 kts | 327° |
| 2026-05-08 17:58 | 43.04651 | -3.10952 | 9896 ft | 309 kts | 327° |
| 2026-05-08 17:58 | 43.06497 | -3.12386 | 9796 ft | 302 kts | 327° |
| 2026-05-08 17:58 | 43.08295 | -3.13787 | 9682 ft | 292 kts | 327° |
| 2026-05-08 17:58 | 43.10027 | -3.15141 | 9424 ft | 281 kts | 327° |
| 2026-05-08 17:59 | 43.11681 | -3.16437 | 9116 ft | 266 kts | 326° |
| 2026-05-08 17:59 | 43.13269 | -3.17684 | 8986 ft | 256 kts | 327° |
| 2026-05-08 17:59 | 43.14786 | -3.18871 | 8855 ft | 246 kts | 326° |
| 2026-05-08 17:59 | 43.16227 | -3.19998 | 8716 ft | 236 kts | 326° |
| 2026-05-08 18:00 | 43.17171 | -3.20737 | 8654 ft | 226 kts | 326° |
| 2026-05-08 18:00 | 43.20254 | -3.23157 | 7875 ft | 217 kts | 327° |
| 2026-05-08 18:00 | 43.21560 | -3.24185 | 7521 ft | 215 kts | 326° |
| 2026-05-08 18:01 | 43.22853 | -3.25204 | 7150 ft | 213 kts | 327° |
| 2026-05-08 18:01 | 43.24125 | -3.26207 | 6658 ft | 210 kts | 327° |
| 2026-05-08 18:01 | 43.25413 | -3.27178 | 6129 ft | 210 kts | 327° |
| 2026-05-08 18:01 | 43.26660 | -3.28161 | 5613 ft | 209 kts | 327° |
| 2026-05-08 18:02 | 43.27903 | -3.29162 | 5124 ft | 205 kts | 327° |
| 2026-05-08 18:02 | 43.28715 | -3.29827 | 4815 ft | 204 kts | 327° |
| 2026-05-08 18:02 | 43.30305 | -3.31171 | 4973 ft | 202 kts | 326° |
| 2026-05-08 18:02 | 43.31507 | -3.32190 | 5274 ft | 204 kts | 327° |
| 2026-05-08 18:03 | 43.32727 | -3.33220 | 5598 ft | 206 kts | 326° |
| 2026-05-08 18:03 | 43.33961 | -3.34244 | 5893 ft | 209 kts | 326° |
| 2026-05-08 18:03 | 43.35230 | -3.35269 | 5981 ft | 212 kts | 327° |
| 2026-05-08 18:03 | 43.36487 | -3.36276 | 6017 ft | 212 kts | 327° |
| 2026-05-08 18:04 | 43.37771 | -3.37317 | 5996 ft | 214 kts | 327° |
| 2026-05-08 18:04 | 43.39061 | -3.38368 | 5988 ft | 214 kts | 328° |
| 2026-05-08 18:04 | 43.40484 | -3.38940 | 5923 ft | 215 kts | 358° |
| 2026-05-08 18:04 | 43.41884 | -3.38496 | 5796 ft | 209 kts | 30° |
| 2026-05-08 18:05 | 43.42946 | -3.37177 | 5749 ft | 205 kts | 60° |
| 2026-05-08 18:05 | 43.43410 | -3.35365 | 5700 ft | 198 kts | 90° |
| 2026-05-08 18:05 | 43.43230 | -3.33528 | 5669 ft | 193 kts | 110° |
| 2026-05-08 18:05 | 43.42865 | -3.31751 | 5623 ft | 193 kts | 110° |
| 2026-05-08 18:06 | 43.42627 | -3.30567 | 5604 ft | 193 kts | 110° |
| 2026-05-08 18:06 | 43.42156 | -3.28211 | 5451 ft | 193 kts | 109° |
| 2026-05-08 18:06 | 43.41920 | -3.27027 | 5353 ft | 192 kts | 109° |
| 2026-05-08 18:06 | 43.41566 | -3.25253 | 5171 ft | 191 kts | 109° |
| 2026-05-08 18:07 | 43.41213 | -3.23492 | 4978 ft | 190 kts | 109° |
| 2026-05-08 18:07 | 43.40861 | -3.21741 | 4792 ft | 190 kts | 109° |
| 2026-05-08 18:07 | 43.40493 | -3.19994 | 4597 ft | 189 kts | 112° |
| 2026-05-08 18:07 | 43.40004 | -3.18332 | 4350 ft | 186 kts | 117° |
| 2026-05-08 18:08 | 43.39458 | -3.16740 | 4112 ft | 186 kts | 119° |
| 2026-05-08 18:08 | 43.38890 | -3.15150 | 3853 ft | 185 kts | 119° |
| 2026-05-08 18:08 | 43.38318 | -3.13570 | 3589 ft | 185 kts | 119° |
| 2026-05-08 18:08 | 43.37746 | -3.11993 | 3343 ft | 184 kts | 118° |
| 2026-05-08 18:09 | 43.37173 | -3.10416 | 3090 ft | 182 kts | 118° |
| 2026-05-08 18:09 | 43.36619 | -3.08891 | 2848 ft | 174 kts | 119° |
| 2026-05-08 18:09 | 43.36088 | -3.07433 | 2601 ft | 168 kts | 118° |
| 2026-05-08 18:09 | 43.35571 | -3.06014 | 2373 ft | 163 kts | 118° |
| 2026-05-08 18:10 | 43.35074 | -3.04651 | 2154 ft | 160 kts | 117° |
| 2026-05-08 18:10 | 43.34584 | -3.03306 | 1964 ft | 152 kts | 117° |
| 2026-05-08 18:10 | 43.34120 | -3.02036 | 1736 ft | 146 kts | 117° |
| 2026-05-08 18:10 | 43.33666 | -3.00791 | 1527 ft | 144 kts | 116° |
| 2026-05-08 18:11 | 43.33220 | -2.99570 | 1329 ft | 144 kts | 115° |
| 2026-05-08 18:11 | 43.32768 | -2.98331 | 1124 ft | 145 kts | 115° |
| 2026-05-08 18:11 | 43.32319 | -2.97103 | 936 ft | 143 kts | 115° |
| 2026-05-08 18:11 | 43.31875 | -2.95889 | 732 ft | 142 kts | 116° |
| 2026-05-08 18:12 | 43.31433 | -2.94683 | 543 ft | 141 kts | 116° |
| 2026-05-08 18:12 | 43.30991 | -2.93474 | 359 ft | 142 kts | 116° |
| 2026-05-08 18:12 | 43.30555 | -2.92269 | 141 ft | 137 kts | 117° |
| 2026-05-08 18:12 | 43.30195 | -2.91291 | 125 ft | 78 kts | 117° |
| 2026-05-08 18:13 | 43.30065 | -2.90937 | 126 ft | 26 kts | 116° |
| 2026-05-08 18:13 | 43.29987 | -2.90725 | 126 ft | 23 kts | 116° |
| 2026-05-08 18:13 | 43.29941 | -2.90567 | 126 ft | 17 kts | 107° |
| 2026-05-08 18:13 | 43.29924 | -2.90411 | 128 ft | 15 kts | 94° |
| 2026-05-08 18:14 | 43.29922 | -2.90301 | 133 ft | 10 kts | 86° |
| 2026-05-08 18:14 | 43.29940 | -2.90228 | 132 ft | 8 kts | 48° |
| 2026-05-08 18:14 | 43.29988 | -2.90228 | 132 ft | 8 kts | 317° |
| 2026-05-08 18:14 | 43.30020 | -2.90301 | 132 ft | 10 kts | 296° |
| 2026-05-08 18:15 | 43.30053 | -2.90390 | 132 ft | 10 kts | 296° |
| 2026-05-08 18:15 | 43.30087 | -2.90421 | 132 ft | 0 kts | 349° |
| 2026-05-08 18:15 | 43.30096 | -2.90445 | 132 ft | 11 kts | 290° |
| 2026-05-08 18:15 | 43.30124 | -2.90561 | 132 ft | 11 kts | 310° |
| 2026-05-08 18:16 | 43.30188 | -2.90549 | 132 ft | 8 kts | 30° |
| 2026-05-08 18:16 | 43.30221 | -2.90527 | 132 ft | 6 kts | 19° |
| 2026-05-08 18:16 | 43.30264 | -2.90539 | 132 ft | 7 kts | 333° |
| 2026-05-08 18:16 | 43.30309 | -2.90580 | 132 ft | 9 kts | 326° |
| 2026-05-08 18:17 | 43.30351 | -2.90637 | 132 ft | 9 kts | 298° |
| 2026-05-08 18:17 | 43.30380 | -2.90712 | 132 ft | 7 kts | 306° |
| 2026-05-08 18:17 | 43.30418 | -2.90703 | 132 ft | 6 kts | 25° |
| 2026-05-08 18:17 | 43.30442 | -2.90687 | 132 ft | 0 kts | 26° |